sensor_id;sensor_type;location;lat;lon;timestamp;P1;durP1;ratioP1;P2;durP2;ratioP2
57565;SDS011;63999;43.882;-0.310;2023-07-20T00:01:10;4.47;;;1.95;;
57565;SDS011;63999;43.882;-0.310;2023-07-20T00:03:41;4.22;;;2.20;;
57565;SDS011;63999;43.882;-0.310;2023-07-20T00:06:13;4.32;;;2.38;;
57565;SDS011;63999;43.882;-0.310;2023-07-20T00:08:39;4.20;;;2.33;;
57565;SDS011;63999;43.882;-0.310;2023-07-20T00:11:05;3.47;;;2.30;;
57565;SDS011;63999;43.882;-0.310;2023-07-20T00:13:31;3.92;;;2.20;;
57565;SDS011;63999;43.882;-0.310;2023-07-20T00:16:03;5.22;;;2.25;;
57565;SDS011;63999;43.882;-0.310;2023-07-20T00:18:31;4.72;;;2.17;;
57565;SDS011;63999;43.882;-0.310;2023-07-20T00:21:00;5.40;;;2.40;;
57565;SDS011;63999;43.882;-0.310;2023-07-20T00:23:31;3.55;;;2.17;;
57565;SDS011;63999;43.882;-0.310;2023-07-20T00:26:02;5.78;;;2.53;;
57565;SDS011;63999;43.882;-0.310;2023-07-20T00:28:30;3.50;;;2.15;;
57565;SDS011;63999;43.882;-0.310;2023-07-20T00:31:02;4.45;;;2.30;;
57565;SDS011;63999;43.882;-0.310;2023-07-20T00:33:31;3.90;;;2.20;;
57565;SDS011;63999;43.882;-0.310;2023-07-20T00:35:57;4.10;;;2.42;;
57565;SDS011;63999;43.882;-0.310;2023-07-20T00:38:29;4.68;;;2.30;;
57565;SDS011;63999;43.882;-0.310;2023-07-20T00:41:04;3.50;;;2.20;;
57565;SDS011;63999;43.882;-0.310;2023-07-20T00:43:29;5.43;;;2.20;;
57565;SDS011;63999;43.882;-0.310;2023-07-20T00:45:55;3.50;;;2.20;;
57565;SDS011;63999;43.882;-0.310;2023-07-20T00:48:24;3.35;;;2.15;;
57565;SDS011;63999;43.882;-0.310;2023-07-20T00:50:56;3.25;;;2.25;;
57565;SDS011;63999;43.882;-0.310;2023-07-20T00:53:26;3.10;;;1.90;;
57565;SDS011;63999;43.882;-0.310;2023-07-20T00:55:58;3.90;;;1.90;;
57565;SDS011;63999;43.882;-0.310;2023-07-20T00:58:26;4.40;;;1.83;;
57565;SDS011;63999;43.882;-0.310;2023-07-20T01:00:53;5.68;;;2.28;;
57565;SDS011;63999;43.882;-0.310;2023-07-20T01:03:19;2.88;;;2.05;;
57565;SDS011;63999;43.882;-0.310;2023-07-20T01:05:48;3.28;;;1.98;;
57565;SDS011;63999;43.882;-0.310;2023-07-20T01:08:39;5.15;;;2.45;;
57565;SDS011;63999;43.882;-0.310;2023-07-20T01:13:56;3.53;;;2.35;;
57565;SDS011;63999;43.882;-0.310;2023-07-20T01:16:27;3.83;;;2.40;;
57565;SDS011;63999;43.882;-0.310;2023-07-20T01:18:53;3.17;;;2.28;;
57565;SDS011;63999;43.882;-0.310;2023-07-20T01:21:31;4.28;;;2.20;;
57565;SDS011;63999;43.882;-0.310;2023-07-20T01:32:44;3.88;;;2.50;;
57565;SDS011;63999;43.882;-0.310;2023-07-20T01:35:12;5.18;;;2.20;;
57565;SDS011;63999;43.882;-0.310;2023-07-20T01:37:44;5.10;;;2.35;;
57565;SDS011;63999;43.882;-0.310;2023-07-20T01:40:17;3.33;;;2.10;;
57565;SDS011;63999;43.882;-0.310;2023-07-20T01:42:50;4.82;;;2.53;;
57565;SDS011;63999;43.882;-0.310;2023-07-20T01:45:23;2.80;;;2.28;;
57565;SDS011;63999;43.882;-0.310;2023-07-20T01:47:52;3.97;;;2.03;;
57565;SDS011;63999;43.882;-0.310;2023-07-20T01:50:18;3.95;;;2.40;;
57565;SDS011;63999;43.882;-0.310;2023-07-20T01:52:47;3.33;;;2.20;;
57565;SDS011;63999;43.882;-0.310;2023-07-20T01:55:13;4.85;;;2.40;;
57565;SDS011;63999;43.882;-0.310;2023-07-20T01:57:44;6.45;;;2.53;;
57565;SDS011;63999;43.882;-0.310;2023-07-20T02:00:13;3.88;;;2.50;;
57565;SDS011;63999;43.882;-0.310;2023-07-20T02:02:44;2.75;;;2.28;;
57565;SDS011;63999;43.882;-0.310;2023-07-20T02:05:12;6.13;;;2.55;;
57565;SDS011;63999;43.882;-0.310;2023-07-20T02:07:41;3.25;;;2.30;;
57565;SDS011;63999;43.882;-0.310;2023-07-20T02:10:10;4.47;;;2.40;;
57565;SDS011;63999;43.882;-0.310;2023-07-20T02:12:39;4.40;;;2.05;;
57565;SDS011;63999;43.882;-0.310;2023-07-20T02:15:08;4.57;;;2.50;;
57565;SDS011;63999;43.882;-0.310;2023-07-20T02:17:34;4.10;;;2.40;;
57565;SDS011;63999;43.882;-0.310;2023-07-20T02:20:03;4.05;;;2.38;;
57565;SDS011;63999;43.882;-0.310;2023-07-20T02:22:30;3.80;;;2.13;;
57565;SDS011;63999;43.882;-0.310;2023-07-20T02:24:55;2.53;;;1.88;;
57565;SDS011;63999;43.882;-0.310;2023-07-20T02:27:26;2.70;;;1.97;;
57565;SDS011;63999;43.882;-0.310;2023-07-20T02:29:59;4.35;;;2.20;;
57565;SDS011;63999;43.882;-0.310;2023-07-20T02:32:25;3.45;;;2.10;;
57565;SDS011;63999;43.882;-0.310;2023-07-20T02:34:51;4.55;;;2.00;;
57565;SDS011;63999;43.882;-0.310;2023-07-20T02:37:17;3.40;;;1.95;;
57565;SDS011;63999;43.882;-0.310;2023-07-20T02:39:46;4.63;;;2.50;;
57565;SDS011;63999;43.882;-0.310;2023-07-20T02:42:12;4.30;;;2.40;;
57565;SDS011;63999;43.882;-0.310;2023-07-20T02:44:40;3.95;;;2.35;;
57565;SDS011;63999;43.882;-0.310;2023-07-20T02:47:11;3.20;;;2.28;;
57565;SDS011;63999;43.882;-0.310;2023-07-20T02:49:39;4.82;;;2.60;;
57565;SDS011;63999;43.882;-0.310;2023-07-20T02:52:08;3.10;;;2.22;;
57565;SDS011;63999;43.882;-0.310;2023-07-20T02:54:40;3.40;;;2.35;;
57565;SDS011;63999;43.882;-0.310;2023-07-20T02:57:06;5.45;;;2.35;;
57565;SDS011;63999;43.882;-0.310;2023-07-20T02:59:40;3.97;;;2.40;;
57565;SDS011;63999;43.882;-0.310;2023-07-20T03:02:09;4.68;;;2.80;;
57565;SDS011;63999;43.882;-0.310;2023-07-20T03:04:40;3.70;;;2.30;;
57565;SDS011;63999;43.882;-0.310;2023-07-20T03:07:06;4.50;;;2.35;;
57565;SDS011;63999;43.882;-0.310;2023-07-20T03:09:35;3.58;;;2.45;;
57565;SDS011;63999;43.882;-0.310;2023-07-20T03:12:01;4.72;;;2.15;;
57565;SDS011;63999;43.882;-0.310;2023-07-20T03:14:29;4.13;;;2.30;;
57565;SDS011;63999;43.882;-0.310;2023-07-20T03:16:55;4.10;;;2.40;;
57565;SDS011;63999;43.882;-0.310;2023-07-20T03:19:24;3.60;;;2.20;;
57565;SDS011;63999;43.882;-0.310;2023-07-20T03:24:18;3.50;;;2.22;;
57565;SDS011;63999;43.882;-0.310;2023-07-20T03:26:52;4.03;;;2.30;;
57565;SDS011;63999;43.882;-0.310;2023-07-20T03:29:24;4.13;;;2.10;;
57565;SDS011;63999;43.882;-0.310;2023-07-20T03:31:54;4.53;;;2.10;;
57565;SDS011;63999;43.882;-0.310;2023-07-20T03:34:24;4.32;;;2.08;;
57565;SDS011;63999;43.882;-0.310;2023-07-20T03:36:55;3.15;;;2.38;;
57565;SDS011;63999;43.882;-0.310;2023-07-20T03:39:24;3.60;;;2.20;;
57565;SDS011;63999;43.882;-0.310;2023-07-20T03:41:55;4.32;;;2.28;;
57565;SDS011;63999;43.882;-0.310;2023-07-20T03:44:25;6.18;;;2.75;;
57565;SDS011;63999;43.882;-0.310;2023-07-20T03:46:54;3.63;;;2.40;;
57565;SDS011;63999;43.882;-0.310;2023-07-20T03:49:20;6.15;;;2.63;;
57565;SDS011;63999;43.882;-0.310;2023-07-20T03:51:52;5.32;;;2.63;;
57565;SDS011;63999;43.882;-0.310;2023-07-20T03:54:18;4.43;;;2.53;;
57565;SDS011;63999;43.882;-0.310;2023-07-20T03:56:44;5.65;;;2.60;;
57565;SDS011;63999;43.882;-0.310;2023-07-20T03:59:10;3.78;;;2.50;;
57565;SDS011;63999;43.882;-0.310;2023-07-20T04:01:41;3.50;;;2.10;;
57565;SDS011;63999;43.882;-0.310;2023-07-20T04:04:15;6.80;;;2.60;;
57565;SDS011;63999;43.882;-0.310;2023-07-20T04:06:44;4.75;;;2.67;;
57565;SDS011;63999;43.882;-0.310;2023-07-20T04:09:12;3.03;;;2.47;;
57565;SDS011;63999;43.882;-0.310;2023-07-20T04:11:42;3.65;;;2.55;;
57565;SDS011;63999;43.882;-0.310;2023-07-20T04:14:10;3.38;;;2.63;;
57565;SDS011;63999;43.882;-0.310;2023-07-20T04:16:41;3.70;;;2.50;;
57565;SDS011;63999;43.882;-0.310;2023-07-20T04:19:07;5.68;;;2.78;;
57565;SDS011;63999;43.882;-0.310;2023-07-20T04:21:39;4.20;;;2.80;;
57565;SDS011;63999;43.882;-0.310;2023-07-20T04:24:14;3.90;;;2.80;;
57565;SDS011;63999;43.882;-0.310;2023-07-20T04:26:39;5.80;;;3.10;;
57565;SDS011;63999;43.882;-0.310;2023-07-20T04:29:08;4.72;;;2.70;;
57565;SDS011;63999;43.882;-0.310;2023-07-20T04:31:37;5.47;;;2.83;;
57565;SDS011;63999;43.882;-0.310;2023-07-20T04:34:06;4.43;;;2.70;;
57565;SDS011;63999;43.882;-0.310;2023-07-20T04:36:35;5.63;;;3.25;;
57565;SDS011;63999;43.882;-0.310;2023-07-20T04:39:04;6.45;;;3.20;;
57565;SDS011;63999;43.882;-0.310;2023-07-20T04:41:33;4.90;;;3.00;;
57565;SDS011;63999;43.882;-0.310;2023-07-20T04:44:08;7.72;;;3.30;;
57565;SDS011;63999;43.882;-0.310;2023-07-20T04:46:41;4.95;;;3.05;;
57565;SDS011;63999;43.882;-0.310;2023-07-20T04:49:11;4.72;;;3.42;;
57565;SDS011;63999;43.882;-0.310;2023-07-20T04:51:43;8.45;;;3.33;;
57565;SDS011;63999;43.882;-0.310;2023-07-20T04:54:11;6.63;;;3.05;;
57565;SDS011;63999;43.882;-0.310;2023-07-20T04:56:38;8.95;;;3.38;;
57565;SDS011;63999;43.882;-0.310;2023-07-20T04:59:04;5.38;;;2.97;;
57565;SDS011;63999;43.882;-0.310;2023-07-20T05:01:39;5.85;;;3.60;;
57565;SDS011;63999;43.882;-0.310;2023-07-20T05:04:10;4.97;;;3.50;;
57565;SDS011;63999;43.882;-0.310;2023-07-20T05:06:39;5.38;;;3.15;;
57565;SDS011;63999;43.882;-0.310;2023-07-20T05:09:05;4.50;;;3.20;;
57565;SDS011;63999;43.882;-0.310;2023-07-20T05:11:34;5.97;;;3.30;;
57565;SDS011;63999;43.882;-0.310;2023-07-20T05:14:02;5.68;;;3.55;;
57565;SDS011;63999;43.882;-0.310;2023-07-20T05:16:31;5.43;;;3.58;;
57565;SDS011;63999;43.882;-0.310;2023-07-20T05:19:05;6.43;;;3.80;;
57565;SDS011;63999;43.882;-0.310;2023-07-20T05:21:34;5.35;;;3.60;;
57565;SDS011;63999;43.882;-0.310;2023-07-20T05:24:03;5.20;;;3.45;;
57565;SDS011;63999;43.882;-0.310;2023-07-20T05:26:29;5.45;;;3.38;;
57565;SDS011;63999;43.882;-0.310;2023-07-20T05:28:55;5.47;;;3.55;;
57565;SDS011;63999;43.882;-0.310;2023-07-20T05:31:26;4.63;;;3.60;;
57565;SDS011;63999;43.882;-0.310;2023-07-20T05:33:55;6.63;;;3.92;;
57565;SDS011;63999;43.882;-0.310;2023-07-20T05:36:24;5.10;;;3.60;;
57565;SDS011;63999;43.882;-0.310;2023-07-20T05:38:53;5.63;;;3.55;;
57565;SDS011;63999;43.882;-0.310;2023-07-20T05:41:25;5.70;;;3.35;;
57565;SDS011;63999;43.882;-0.310;2023-07-20T05:43:53;7.28;;;4.05;;
57565;SDS011;63999;43.882;-0.310;2023-07-20T05:46:22;4.20;;;2.85;;
57565;SDS011;63999;43.882;-0.310;2023-07-20T05:48:51;5.00;;;3.25;;
57565;SDS011;63999;43.882;-0.310;2023-07-20T05:51:19;4.93;;;3.30;;
57565;SDS011;63999;43.882;-0.310;2023-07-20T05:53:57;5.18;;;3.60;;
57565;SDS011;63999;43.882;-0.310;2023-07-20T05:56:22;4.32;;;3.10;;
57565;SDS011;63999;43.882;-0.310;2023-07-20T05:58:48;6.78;;;3.00;;
57565;SDS011;63999;43.882;-0.310;2023-07-20T06:01:15;5.60;;;3.25;;
57565;SDS011;63999;43.882;-0.310;2023-07-20T06:03:45;3.97;;;2.90;;
57565;SDS011;63999;43.882;-0.310;2023-07-20T06:06:14;6.43;;;3.42;;
57565;SDS011;63999;43.882;-0.310;2023-07-20T06:11:14;7.55;;;3.55;;
57565;SDS011;63999;43.882;-0.310;2023-07-20T06:13:41;5.07;;;3.45;;
57565;SDS011;63999;43.882;-0.310;2023-07-20T06:16:08;5.90;;;3.17;;
57565;SDS011;63999;43.882;-0.310;2023-07-20T06:18:40;6.28;;;3.60;;
57565;SDS011;63999;43.882;-0.310;2023-07-20T06:21:10;5.05;;;3.40;;
57565;SDS011;63999;43.882;-0.310;2023-07-20T06:23:44;4.90;;;3.42;;
57565;SDS011;63999;43.882;-0.310;2023-07-20T06:26:13;6.15;;;3.20;;
57565;SDS011;63999;43.882;-0.310;2023-07-20T06:31:10;4.00;;;3.20;;
57565;SDS011;63999;43.882;-0.310;2023-07-20T06:33:42;3.85;;;3.20;;
57565;SDS011;63999;43.882;-0.310;2023-07-20T06:36:08;3.70;;;2.92;;
57565;SDS011;63999;43.882;-0.310;2023-07-20T06:38:40;5.25;;;3.22;;
57565;SDS011;63999;43.882;-0.310;2023-07-20T06:41:06;4.18;;;2.90;;
57565;SDS011;63999;43.882;-0.310;2023-07-20T06:43:35;4.35;;;2.90;;
57565;SDS011;63999;43.882;-0.310;2023-07-20T06:46:01;4.25;;;3.15;;
57565;SDS011;63999;43.882;-0.310;2023-07-20T06:48:27;4.57;;;3.00;;
57565;SDS011;63999;43.882;-0.310;2023-07-20T06:50:55;4.63;;;3.03;;
57565;SDS011;63999;43.882;-0.310;2023-07-20T06:53:22;6.18;;;3.10;;
57565;SDS011;63999;43.882;-0.310;2023-07-20T06:55:50;5.07;;;2.85;;
57565;SDS011;63999;43.882;-0.310;2023-07-20T06:58:21;4.97;;;2.60;;
57565;SDS011;63999;43.882;-0.310;2023-07-20T07:00:51;6.07;;;2.80;;
57565;SDS011;63999;43.882;-0.310;2023-07-20T07:03:19;4.70;;;2.60;;
57565;SDS011;63999;43.882;-0.310;2023-07-20T07:05:54;7.82;;;2.78;;
57565;SDS011;63999;43.882;-0.310;2023-07-20T07:08:24;4.15;;;2.70;;
57565;SDS011;63999;43.882;-0.310;2023-07-20T07:10:52;3.00;;;2.13;;
57565;SDS011;63999;43.882;-0.310;2023-07-20T07:13:19;3.15;;;2.22;;
57565;SDS011;63999;43.882;-0.310;2023-07-20T07:15:47;4.60;;;2.40;;
57565;SDS011;63999;43.882;-0.310;2023-07-20T07:18:16;2.85;;;2.30;;
57565;SDS011;63999;43.882;-0.310;2023-07-20T07:20:49;3.75;;;2.10;;
57565;SDS011;63999;43.882;-0.310;2023-07-20T07:23:19;2.70;;;2.08;;
57565;SDS011;63999;43.882;-0.310;2023-07-20T07:25:48;2.88;;;1.90;;
57565;SDS011;63999;43.882;-0.310;2023-07-20T07:28:26;3.67;;;1.98;;
57565;SDS011;63999;43.882;-0.310;2023-07-20T07:30:58;2.42;;;1.90;;
57565;SDS011;63999;43.882;-0.310;2023-07-20T07:33:27;3.47;;;1.95;;
57565;SDS011;63999;43.882;-0.310;2023-07-20T07:35:53;4.40;;;1.70;;
57565;SDS011;63999;43.882;-0.310;2023-07-20T07:38:24;4.00;;;1.40;;
57565;SDS011;63999;43.882;-0.310;2023-07-20T07:40:52;3.75;;;1.50;;
57565;SDS011;63999;43.882;-0.310;2023-07-20T07:43:23;3.42;;;1.70;;
57565;SDS011;63999;43.882;-0.310;2023-07-20T07:45:53;3.15;;;1.50;;
57565;SDS011;63999;43.882;-0.310;2023-07-20T07:48:23;5.43;;;1.52;;
57565;SDS011;63999;43.882;-0.310;2023-07-20T07:50:50;2.80;;;1.50;;
57565;SDS011;63999;43.882;-0.310;2023-07-20T07:53:19;2.72;;;1.60;;
57565;SDS011;63999;43.882;-0.310;2023-07-20T07:55:49;4.32;;;1.65;;
57565;SDS011;63999;43.882;-0.310;2023-07-20T08:00:45;2.65;;;1.40;;
57565;SDS011;63999;43.882;-0.310;2023-07-20T08:03:16;2.65;;;1.63;;
57565;SDS011;63999;43.882;-0.310;2023-07-20T08:05:49;4.30;;;1.40;;
57565;SDS011;63999;43.882;-0.310;2023-07-20T08:08:17;2.38;;;1.20;;
57565;SDS011;63999;43.882;-0.310;2023-07-20T08:10:53;1.95;;;1.50;;
57565;SDS011;63999;43.882;-0.310;2023-07-20T08:13:20;2.08;;;1.52;;
57565;SDS011;63999;43.882;-0.310;2023-07-20T08:15:51;3.00;;;1.42;;
57565;SDS011;63999;43.882;-0.310;2023-07-20T08:18:23;2.85;;;1.50;;
57565;SDS011;63999;43.882;-0.310;2023-07-20T08:20:51;2.33;;;1.58;;
57565;SDS011;63999;43.882;-0.310;2023-07-20T08:23:20;1.80;;;1.20;;
57565;SDS011;63999;43.882;-0.310;2023-07-20T08:25:55;1.98;;;1.40;;
57565;SDS011;63999;43.882;-0.310;2023-07-20T08:28:26;2.38;;;1.40;;
57565;SDS011;63999;43.882;-0.310;2023-07-20T08:30:54;3.47;;;1.52;;
57565;SDS011;63999;43.882;-0.310;2023-07-20T08:33:20;4.47;;;1.63;;
57565;SDS011;63999;43.882;-0.310;2023-07-20T08:35:46;1.77;;;1.30;;
57565;SDS011;63999;43.882;-0.310;2023-07-20T08:38:12;3.83;;;1.55;;
57565;SDS011;63999;43.882;-0.310;2023-07-20T08:40:42;2.83;;;1.38;;
57565;SDS011;63999;43.882;-0.310;2023-07-20T08:43:18;2.05;;;1.40;;
57565;SDS011;63999;43.882;-0.310;2023-07-20T08:45:44;2.17;;;1.45;;
57565;SDS011;63999;43.882;-0.310;2023-07-20T08:48:14;2.60;;;1.60;;
57565;SDS011;63999;43.882;-0.310;2023-07-20T08:50:42;2.55;;;1.45;;
57565;SDS011;63999;43.882;-0.310;2023-07-20T08:53:09;2.15;;;1.48;;
57565;SDS011;63999;43.882;-0.310;2023-07-20T08:55:43;4.43;;;1.50;;
57565;SDS011;63999;43.882;-0.310;2023-07-20T08:58:13;1.20;;;1.10;;
57565;SDS011;63999;43.882;-0.310;2023-07-20T09:00:44;7.70;;;1.77;;
57565;SDS011;63999;43.882;-0.310;2023-07-20T09:03:16;2.40;;;1.33;;
57565;SDS011;63999;43.882;-0.310;2023-07-20T09:05:52;5.25;;;1.40;;
57565;SDS011;63999;43.882;-0.310;2023-07-20T09:08:19;1.58;;;1.30;;
57565;SDS011;63999;43.882;-0.310;2023-07-20T09:10:47;3.67;;;1.85;;
57565;SDS011;63999;43.882;-0.310;2023-07-20T09:13:16;3.50;;;1.90;;
57565;SDS011;63999;43.882;-0.310;2023-07-20T09:15:45;3.25;;;1.70;;
57565;SDS011;63999;43.882;-0.310;2023-07-20T09:18:23;2.97;;;1.70;;
57565;SDS011;63999;43.882;-0.310;2023-07-20T09:20:49;3.15;;;1.33;;
57565;SDS011;63999;43.882;-0.310;2023-07-20T09:23:32;2.80;;;1.60;;
57565;SDS011;63999;43.882;-0.310;2023-07-20T09:26:00;2.20;;;1.60;;
57565;SDS011;63999;43.882;-0.310;2023-07-20T09:28:55;2.88;;;1.42;;
57565;SDS011;63999;43.882;-0.310;2023-07-20T09:31:23;4.00;;;1.67;;
57565;SDS011;63999;43.882;-0.310;2023-07-20T09:33:57;2.87;;;1.63;;
57565;SDS011;63999;43.882;-0.310;2023-07-20T09:36:26;5.00;;;1.50;;
57565;SDS011;63999;43.882;-0.310;2023-07-20T09:41:30;2.92;;;1.65;;
57565;SDS011;63999;43.882;-0.310;2023-07-20T09:44:05;3.63;;;1.50;;
57565;SDS011;63999;43.882;-0.310;2023-07-20T09:46:45;2.25;;;1.48;;
57565;SDS011;63999;43.882;-0.310;2023-07-20T09:49:14;2.10;;;1.42;;
57565;SDS011;63999;43.882;-0.310;2023-07-20T09:51:47;1.85;;;1.33;;
57565;SDS011;63999;43.882;-0.310;2023-07-20T09:54:20;1.90;;;1.30;;
57565;SDS011;63999;43.882;-0.310;2023-07-20T09:56:54;2.75;;;1.73;;
57565;SDS011;63999;43.882;-0.310;2023-07-20T09:59:24;2.55;;;1.30;;
57565;SDS011;63999;43.882;-0.310;2023-07-20T10:01:57;2.45;;;1.30;;
57565;SDS011;63999;43.882;-0.310;2023-07-20T10:04:26;2.50;;;1.58;;
57565;SDS011;63999;43.882;-0.310;2023-07-20T10:06:54;2.30;;;1.60;;
57565;SDS011;63999;43.882;-0.310;2023-07-20T10:09:24;4.47;;;1.33;;
57565;SDS011;63999;43.882;-0.310;2023-07-20T10:11:57;2.50;;;1.60;;
57565;SDS011;63999;43.882;-0.310;2023-07-20T10:14:30;2.58;;;1.30;;
57565;SDS011;63999;43.882;-0.310;2023-07-20T10:16:59;2.55;;;1.10;;
57565;SDS011;63999;43.882;-0.310;2023-07-20T10:19:34;4.68;;;1.55;;
57565;SDS011;63999;43.882;-0.310;2023-07-20T10:22:18;18.33;;;2.45;;
57565;SDS011;63999;43.882;-0.310;2023-07-20T10:24:53;2.55;;;1.00;;
57565;SDS011;63999;43.882;-0.310;2023-07-20T10:27:23;1.58;;;1.27;;
57565;SDS011;63999;43.882;-0.310;2023-07-20T10:29:49;1.92;;;1.33;;
57565;SDS011;63999;43.882;-0.310;2023-07-20T10:32:20;2.90;;;1.40;;
57565;SDS011;63999;43.882;-0.310;2023-07-20T10:34:50;2.15;;;1.65;;
57565;SDS011;63999;43.882;-0.310;2023-07-20T10:40:36;2.88;;;1.50;;
57565;SDS011;63999;43.882;-0.310;2023-07-20T10:43:12;3.97;;;1.67;;
57565;SDS011;63999;43.882;-0.310;2023-07-20T10:45:52;1.70;;;1.50;;
57565;SDS011;63999;43.882;-0.310;2023-07-20T10:48:24;4.00;;;1.70;;
57565;SDS011;63999;43.882;-0.310;2023-07-20T10:51:20;2.58;;;1.48;;
57565;SDS011;63999;43.882;-0.310;2023-07-20T10:53:48;1.92;;;1.40;;
57565;SDS011;63999;43.882;-0.310;2023-07-20T10:56:25;2.55;;;1.63;;
57565;SDS011;63999;43.882;-0.310;2023-07-20T10:59:00;4.55;;;1.75;;
57565;SDS011;63999;43.882;-0.310;2023-07-20T11:01:46;2.47;;;1.60;;
57565;SDS011;63999;43.882;-0.310;2023-07-20T11:04:37;2.33;;;1.60;;
57565;SDS011;63999;43.882;-0.310;2023-07-20T11:07:05;2.75;;;1.58;;
57565;SDS011;63999;43.882;-0.310;2023-07-20T11:09:38;3.08;;;1.50;;
57565;SDS011;63999;43.882;-0.310;2023-07-20T11:12:10;2.67;;;1.60;;
57565;SDS011;63999;43.882;-0.310;2023-07-20T11:14:55;4.88;;;1.70;;
57565;SDS011;63999;43.882;-0.310;2023-07-20T11:17:28;3.05;;;1.70;;
57565;SDS011;63999;43.882;-0.310;2023-07-20T11:20:01;3.70;;;2.17;;
57565;SDS011;63999;43.882;-0.310;2023-07-20T11:22:33;3.17;;;1.90;;
57565;SDS011;63999;43.882;-0.310;2023-07-20T11:24:59;1.98;;;1.35;;
57565;SDS011;63999;43.882;-0.310;2023-07-20T11:27:25;1.73;;;1.17;;
57565;SDS011;63999;43.882;-0.310;2023-07-20T11:29:57;5.65;;;2.10;;
57565;SDS011;63999;43.882;-0.310;2023-07-20T11:32:23;2.70;;;2.20;;
57565;SDS011;63999;43.882;-0.310;2023-07-20T11:34:49;2.67;;;1.75;;
57565;SDS011;63999;43.882;-0.310;2023-07-20T11:37:19;3.65;;;2.22;;
57565;SDS011;63999;43.882;-0.310;2023-07-20T11:39:54;3.00;;;1.48;;
57565;SDS011;63999;43.882;-0.310;2023-07-20T11:42:25;2.85;;;2.20;;
57565;SDS011;63999;43.882;-0.310;2023-07-20T11:44:57;4.88;;;2.42;;
57565;SDS011;63999;43.882;-0.310;2023-07-20T11:47:28;4.57;;;2.50;;
57565;SDS011;63999;43.882;-0.310;2023-07-20T11:49:55;4.93;;;2.50;;
57565;SDS011;63999;43.882;-0.310;2023-07-20T11:52:32;3.67;;;2.25;;
57565;SDS011;63999;43.882;-0.310;2023-07-20T11:55:03;3.75;;;1.90;;
57565;SDS011;63999;43.882;-0.310;2023-07-20T11:57:36;2.97;;;2.00;;
57565;SDS011;63999;43.882;-0.310;2023-07-20T12:00:09;4.32;;;2.35;;
57565;SDS011;63999;43.882;-0.310;2023-07-20T12:02:37;4.70;;;2.00;;
57565;SDS011;63999;43.882;-0.310;2023-07-20T12:05:08;3.75;;;2.10;;
57565;SDS011;63999;43.882;-0.310;2023-07-20T12:07:39;4.28;;;2.40;;
57565;SDS011;63999;43.882;-0.310;2023-07-20T12:10:15;4.35;;;1.65;;
57565;SDS011;63999;43.882;-0.310;2023-07-20T12:13:00;4.38;;;2.00;;
57565;SDS011;63999;43.882;-0.310;2023-07-20T12:15:30;5.88;;;2.47;;
57565;SDS011;63999;43.882;-0.310;2023-07-20T12:18:00;2.70;;;1.90;;
57565;SDS011;63999;43.882;-0.310;2023-07-20T12:20:30;5.50;;;2.83;;
57565;SDS011;63999;43.882;-0.310;2023-07-20T12:23:00;5.20;;;2.80;;
57565;SDS011;63999;43.882;-0.310;2023-07-20T12:25:36;4.72;;;2.90;;
57565;SDS011;63999;43.882;-0.310;2023-07-20T12:28:09;5.50;;;3.30;;
57565;SDS011;63999;43.882;-0.310;2023-07-20T12:30:40;3.50;;;2.50;;
57565;SDS011;63999;43.882;-0.310;2023-07-20T12:33:09;4.03;;;2.42;;
57565;SDS011;63999;43.882;-0.310;2023-07-20T12:35:40;4.60;;;2.78;;
57565;SDS011;63999;43.882;-0.310;2023-07-20T12:38:11;3.92;;;2.42;;
57565;SDS011;63999;43.882;-0.310;2023-07-20T12:40:39;6.15;;;2.70;;
57565;SDS011;63999;43.882;-0.310;2023-07-20T12:43:05;5.10;;;2.88;;
57565;SDS011;63999;43.882;-0.310;2023-07-20T12:45:37;3.08;;;2.30;;
57565;SDS011;63999;43.882;-0.310;2023-07-20T12:48:08;5.65;;;3.08;;
57565;SDS011;63999;43.882;-0.310;2023-07-20T12:50:34;3.30;;;2.25;;
57565;SDS011;63999;43.882;-0.310;2023-07-20T12:53:08;3.65;;;2.60;;
57565;SDS011;63999;43.882;-0.310;2023-07-20T12:55:34;2.78;;;2.40;;
57565;SDS011;63999;43.882;-0.310;2023-07-20T12:58:09;4.43;;;2.63;;
57565;SDS011;63999;43.882;-0.310;2023-07-20T13:00:36;6.07;;;2.88;;
57565;SDS011;63999;43.882;-0.310;2023-07-20T13:03:11;4.80;;;2.97;;
57565;SDS011;63999;43.882;-0.310;2023-07-20T13:05:45;4.40;;;2.95;;
57565;SDS011;63999;43.882;-0.310;2023-07-20T13:08:14;4.65;;;3.10;;
57565;SDS011;63999;43.882;-0.310;2023-07-20T13:10:45;4.38;;;2.50;;
57565;SDS011;63999;43.882;-0.310;2023-07-20T13:13:11;5.63;;;2.70;;
57565;SDS011;63999;43.882;-0.310;2023-07-20T13:15:43;2.97;;;2.22;;
57565;SDS011;63999;43.882;-0.310;2023-07-20T13:18:15;4.65;;;2.78;;
57565;SDS011;63999;43.882;-0.310;2023-07-20T13:20:43;3.05;;;2.42;;
57565;SDS011;63999;43.882;-0.310;2023-07-20T13:23:12;3.75;;;2.60;;
57565;SDS011;63999;43.882;-0.310;2023-07-20T13:25:44;5.07;;;3.00;;
57565;SDS011;63999;43.882;-0.310;2023-07-20T13:28:16;3.70;;;2.72;;
57565;SDS011;63999;43.882;-0.310;2023-07-20T13:30:44;4.57;;;2.47;;
57565;SDS011;63999;43.882;-0.310;2023-07-20T13:33:13;4.85;;;2.92;;
57565;SDS011;63999;43.882;-0.310;2023-07-20T13:35:39;3.15;;;2.28;;
57565;SDS011;63999;43.882;-0.310;2023-07-20T13:38:05;3.85;;;2.65;;
57565;SDS011;63999;43.882;-0.310;2023-07-20T13:40:31;3.60;;;2.40;;
57565;SDS011;63999;43.882;-0.310;2023-07-20T13:43:02;3.95;;;2.47;;
57565;SDS011;63999;43.882;-0.310;2023-07-20T13:45:31;5.18;;;2.90;;
57565;SDS011;63999;43.882;-0.310;2023-07-20T13:48:00;5.20;;;3.00;;
57565;SDS011;63999;43.882;-0.310;2023-07-20T13:50:26;5.78;;;3.42;;
57565;SDS011;63999;43.882;-0.310;2023-07-20T13:52:56;4.80;;;3.10;;
57565;SDS011;63999;43.882;-0.310;2023-07-20T13:55:24;4.13;;;2.67;;
57565;SDS011;63999;43.882;-0.310;2023-07-20T13:57:59;4.32;;;3.35;;
57565;SDS011;63999;43.882;-0.310;2023-07-20T14:00:24;4.72;;;3.15;;
57565;SDS011;63999;43.882;-0.310;2023-07-20T14:02:58;4.80;;;2.58;;
57565;SDS011;63999;43.882;-0.310;2023-07-20T14:05:27;6.18;;;3.08;;
57565;SDS011;63999;43.882;-0.310;2023-07-20T14:07:55;4.63;;;3.22;;
57565;SDS011;63999;43.882;-0.310;2023-07-20T14:10:24;2.85;;;2.42;;
57565;SDS011;63999;43.882;-0.310;2023-07-20T14:12:55;4.28;;;2.92;;
57565;SDS011;63999;43.882;-0.310;2023-07-20T14:15:24;5.22;;;2.85;;
57565;SDS011;63999;43.882;-0.310;2023-07-20T14:17:52;5.20;;;3.10;;
57565;SDS011;63999;43.882;-0.310;2023-07-20T14:20:21;4.47;;;3.10;;
57565;SDS011;63999;43.882;-0.310;2023-07-20T14:22:47;4.60;;;3.30;;
57565;SDS011;63999;43.882;-0.310;2023-07-20T14:25:16;4.82;;;3.08;;
57565;SDS011;63999;43.882;-0.310;2023-07-20T14:27:50;4.30;;;3.08;;
57565;SDS011;63999;43.882;-0.310;2023-07-20T14:30:18;4.50;;;2.92;;
57565;SDS011;63999;43.882;-0.310;2023-07-20T14:32:44;3.55;;;2.70;;
57565;SDS011;63999;43.882;-0.310;2023-07-20T14:35:16;5.13;;;2.70;;
57565;SDS011;63999;43.882;-0.310;2023-07-20T14:37:48;4.50;;;3.00;;
57565;SDS011;63999;43.882;-0.310;2023-07-20T14:40:17;3.50;;;2.88;;
57565;SDS011;63999;43.882;-0.310;2023-07-20T14:42:43;4.43;;;2.78;;
57565;SDS011;63999;43.882;-0.310;2023-07-20T14:45:09;4.28;;;2.90;;
57565;SDS011;63999;43.882;-0.310;2023-07-20T14:47:38;3.00;;;2.60;;
57565;SDS011;63999;43.882;-0.310;2023-07-20T14:50:11;4.82;;;2.92;;
57565;SDS011;63999;43.882;-0.310;2023-07-20T14:52:45;4.85;;;3.10;;
57565;SDS011;63999;43.882;-0.310;2023-07-20T14:55:11;4.63;;;3.15;;
57565;SDS011;63999;43.882;-0.310;2023-07-20T14:57:38;5.15;;;3.00;;
57565;SDS011;63999;43.882;-0.310;2023-07-20T15:00:07;5.40;;;3.15;;
57565;SDS011;63999;43.882;-0.310;2023-07-20T15:02:40;4.25;;;2.67;;
57565;SDS011;63999;43.882;-0.310;2023-07-20T15:05:12;6.00;;;2.97;;
57565;SDS011;63999;43.882;-0.310;2023-07-20T15:07:53;4.43;;;3.08;;
57565;SDS011;63999;43.882;-0.310;2023-07-20T15:10:28;3.33;;;2.63;;
57565;SDS011;63999;43.882;-0.310;2023-07-20T15:12:57;3.40;;;2.40;;
57565;SDS011;63999;43.882;-0.310;2023-07-20T15:15:23;3.97;;;2.33;;
57565;SDS011;63999;43.882;-0.310;2023-07-20T15:17:49;3.60;;;2.35;;